sensor_id;sensor_type;location;lat;lon;timestamp;P1;durP1;ratioP1;P2;durP2;ratioP2
11171;SDS011;5642;50.830;12.082;2023-11-19T00:00:29;0.80;;;0.80;;
11171;SDS011;5642;50.830;12.082;2023-11-19T00:02:59;0.70;;;0.70;;
11171;SDS011;5642;50.830;12.082;2023-11-19T00:05:25;0.70;;;0.70;;
11171;SDS011;5642;50.830;12.082;2023-11-19T00:07:55;0.93;;;0.70;;
11171;SDS011;5642;50.830;12.082;2023-11-19T00:10:22;0.47;;;0.47;;
11171;SDS011;5642;50.830;12.082;2023-11-19T00:12:48;0.57;;;0.57;;
11171;SDS011;5642;50.830;12.082;2023-11-19T00:15:15;0.75;;;0.60;;
11171;SDS011;5642;50.830;12.082;2023-11-19T00:17:44;0.68;;;0.68;;
11171;SDS011;5642;50.830;12.082;2023-11-19T00:20:16;0.60;;;0.60;;
11171;SDS011;5642;50.830;12.082;2023-11-19T00:22:48;0.50;;;0.50;;
11171;SDS011;5642;50.830;12.082;2023-11-19T00:25:16;0.40;;;0.40;;
11171;SDS011;5642;50.830;12.082;2023-11-19T00:27:43;0.63;;;0.63;;
11171;SDS011;5642;50.830;12.082;2023-11-19T00:30:14;0.50;;;0.50;;
11171;SDS011;5642;50.830;12.082;2023-11-19T00:32:41;0.50;;;0.50;;
11171;SDS011;5642;50.830;12.082;2023-11-19T00:35:07;0.43;;;0.43;;
11171;SDS011;5642;50.830;12.082;2023-11-19T00:37:35;0.60;;;0.60;;
11171;SDS011;5642;50.830;12.082;2023-11-19T00:40:01;0.40;;;0.40;;
11171;SDS011;5642;50.830;12.082;2023-11-19T00:42:33;0.50;;;0.50;;
11171;SDS011;5642;50.830;12.082;2023-11-19T00:45:00;0.52;;;0.52;;
11171;SDS011;5642;50.830;12.082;2023-11-19T00:47:27;0.70;;;0.70;;
11171;SDS011;5642;50.830;12.082;2023-11-19T00:49:54;0.60;;;0.60;;
11171;SDS011;5642;50.830;12.082;2023-11-19T00:52:21;0.38;;;0.38;;
11171;SDS011;5642;50.830;12.082;2023-11-19T00:54:48;0.45;;;0.45;;
11171;SDS011;5642;50.830;12.082;2023-11-19T00:57:15;0.40;;;0.40;;
11171;SDS011;5642;50.830;12.082;2023-11-19T00:59:41;0.50;;;0.50;;
11171;SDS011;5642;50.830;12.082;2023-11-19T01:02:08;0.38;;;0.38;;
11171;SDS011;5642;50.830;12.082;2023-11-19T01:04:35;0.40;;;0.40;;
11171;SDS011;5642;50.830;12.082;2023-11-19T01:07:04;0.40;;;0.40;;
11171;SDS011;5642;50.830;12.082;2023-11-19T01:09:38;0.40;;;0.40;;
11171;SDS011;5642;50.830;12.082;2023-11-19T01:12:05;0.50;;;0.50;;
11171;SDS011;5642;50.830;12.082;2023-11-19T01:14:31;0.50;;;0.50;;
11171;SDS011;5642;50.830;12.082;2023-11-19T01:16:57;0.50;;;0.50;;
11171;SDS011;5642;50.830;12.082;2023-11-19T01:19:23;0.60;;;0.60;;
11171;SDS011;5642;50.830;12.082;2023-11-19T01:22:09;0.50;;;0.50;;
11171;SDS011;5642;50.830;12.082;2023-11-19T01:24:35;0.38;;;0.38;;
11171;SDS011;5642;50.830;12.082;2023-11-19T01:27:02;0.50;;;0.50;;
11171;SDS011;5642;50.830;12.082;2023-11-19T01:29:30;0.60;;;0.60;;
11171;SDS011;5642;50.830;12.082;2023-11-19T01:31:56;0.40;;;0.40;;
11171;SDS011;5642;50.830;12.082;2023-11-19T01:34:23;0.40;;;0.40;;
11171;SDS011;5642;50.830;12.082;2023-11-19T01:36:49;0.55;;;0.55;;
11171;SDS011;5642;50.830;12.082;2023-11-19T01:39:15;0.50;;;0.50;;
11171;SDS011;5642;50.830;12.082;2023-11-19T01:41:45;0.50;;;0.50;;
11171;SDS011;5642;50.830;12.082;2023-11-19T01:44:13;0.47;;;0.47;;
11171;SDS011;5642;50.830;12.082;2023-11-19T01:46:42;0.60;;;0.60;;
11171;SDS011;5642;50.830;12.082;2023-11-19T01:49:11;0.50;;;0.50;;
11171;SDS011;5642;50.830;12.082;2023-11-19T01:51:39;0.57;;;0.57;;
11171;SDS011;5642;50.830;12.082;2023-11-19T01:54:07;0.50;;;0.50;;
11171;SDS011;5642;50.830;12.082;2023-11-19T01:56:34;0.40;;;0.40;;
11171;SDS011;5642;50.830;12.082;2023-11-19T01:59:03;0.60;;;0.60;;
11171;SDS011;5642;50.830;12.082;2023-11-19T02:01:30;0.43;;;0.43;;
11171;SDS011;5642;50.830;12.082;2023-11-19T02:04:01;0.30;;;0.30;;
11171;SDS011;5642;50.830;12.082;2023-11-19T02:06:28;0.30;;;0.30;;
11171;SDS011;5642;50.830;12.082;2023-11-19T02:08:56;0.50;;;0.50;;
11171;SDS011;5642;50.830;12.082;2023-11-19T02:11:23;0.50;;;0.50;;
11171;SDS011;5642;50.830;12.082;2023-11-19T02:13:56;0.50;;;0.50;;
11171;SDS011;5642;50.830;12.082;2023-11-19T02:16:23;0.40;;;0.40;;
11171;SDS011;5642;50.830;12.082;2023-11-19T02:18:50;0.35;;;0.35;;
11171;SDS011;5642;50.830;12.082;2023-11-19T02:21:18;0.50;;;0.50;;
11171;SDS011;5642;50.830;12.082;2023-11-19T02:23:45;0.40;;;0.40;;
11171;SDS011;5642;50.830;12.082;2023-11-19T02:26:29;0.40;;;0.40;;
11171;SDS011;5642;50.830;12.082;2023-11-19T02:29:18;0.43;;;0.43;;
11171;SDS011;5642;50.830;12.082;2023-11-19T02:31:46;0.40;;;0.40;;
11171;SDS011;5642;50.830;12.082;2023-11-19T02:34:12;0.40;;;0.40;;
11171;SDS011;5642;50.830;12.082;2023-11-19T02:36:40;0.20;;;0.20;;
11171;SDS011;5642;50.830;12.082;2023-11-19T02:39:07;0.40;;;0.40;;
11171;SDS011;5642;50.830;12.082;2023-11-19T02:41:38;0.28;;;0.28;;
11171;SDS011;5642;50.830;12.082;2023-11-19T02:44:06;0.50;;;0.50;;
11171;SDS011;5642;50.830;12.082;2023-11-19T02:46:33;0.30;;;0.30;;
11171;SDS011;5642;50.830;12.082;2023-11-19T02:49:00;0.40;;;0.40;;
11171;SDS011;5642;50.830;12.082;2023-11-19T02:51:27;0.50;;;0.50;;
11171;SDS011;5642;50.830;12.082;2023-11-19T02:53:54;0.40;;;0.40;;
11171;SDS011;5642;50.830;12.082;2023-11-19T02:56:20;0.55;;;0.35;;
11171;SDS011;5642;50.830;12.082;2023-11-19T02:59:00;0.20;;;0.20;;
11171;SDS011;5642;50.830;12.082;2023-11-19T03:01:37;0.30;;;0.30;;
11171;SDS011;5642;50.830;12.082;2023-11-19T03:04:09;0.52;;;0.45;;
11171;SDS011;5642;50.830;12.082;2023-11-19T03:06:38;0.30;;;0.30;;
11171;SDS011;5642;50.830;12.082;2023-11-19T03:09:06;0.40;;;0.40;;
11171;SDS011;5642;50.830;12.082;2023-11-19T03:11:37;0.80;;;0.50;;
11171;SDS011;5642;50.830;12.082;2023-11-19T03:14:04;0.30;;;0.30;;
11171;SDS011;5642;50.830;12.082;2023-11-19T03:16:31;0.30;;;0.30;;
11171;SDS011;5642;50.830;12.082;2023-11-19T03:18:58;0.40;;;0.40;;
11171;SDS011;5642;50.830;12.082;2023-11-19T03:21:27;0.35;;;0.35;;
11171;SDS011;5642;50.830;12.082;2023-11-19T03:23:57;0.30;;;0.30;;
11171;SDS011;5642;50.830;12.082;2023-11-19T03:26:27;0.20;;;0.20;;
11171;SDS011;5642;50.830;12.082;2023-11-19T03:28:53;0.30;;;0.30;;
11171;SDS011;5642;50.830;12.082;2023-11-19T03:31:19;0.22;;;0.22;;
11171;SDS011;5642;50.830;12.082;2023-11-19T03:33:46;0.40;;;0.40;;
11171;SDS011;5642;50.830;12.082;2023-11-19T03:36:12;0.25;;;0.25;;
11171;SDS011;5642;50.830;12.082;2023-11-19T03:38:39;0.20;;;0.20;;
11171;SDS011;5642;50.830;12.082;2023-11-19T03:41:12;0.35;;;0.35;;
11171;SDS011;5642;50.830;12.082;2023-11-19T03:43:42;0.35;;;0.35;;
11171;SDS011;5642;50.830;12.082;2023-11-19T03:46:21;0.20;;;0.20;;
11171;SDS011;5642;50.830;12.082;2023-11-19T03:48:48;0.40;;;0.40;;
11171;SDS011;5642;50.830;12.082;2023-11-19T03:51:15;0.20;;;0.20;;
11171;SDS011;5642;50.830;12.082;2023-11-19T03:53:45;0.30;;;0.30;;
11171;SDS011;5642;50.830;12.082;2023-11-19T03:56:13;0.30;;;0.30;;
11171;SDS011;5642;50.830;12.082;2023-11-19T03:58:41;0.30;;;0.30;;
11171;SDS011;5642;50.830;12.082;2023-11-19T04:01:11;0.22;;;0.22;;
11171;SDS011;5642;50.830;12.082;2023-11-19T04:03:41;0.20;;;0.20;;
11171;SDS011;5642;50.830;12.082;2023-11-19T04:06:09;0.20;;;0.20;;
11171;SDS011;5642;50.830;12.082;2023-11-19T04:08:37;0.47;;;0.40;;
11171;SDS011;5642;50.830;12.082;2023-11-19T04:11:04;0.30;;;0.30;;
11171;SDS011;5642;50.830;12.082;2023-11-19T04:13:31;0.30;;;0.30;;
11171;SDS011;5642;50.830;12.082;2023-11-19T04:15:58;0.30;;;0.30;;
11171;SDS011;5642;50.830;12.082;2023-11-19T04:18:26;0.30;;;0.30;;
11171;SDS011;5642;50.830;12.082;2023-11-19T04:20:53;0.40;;;0.40;;
11171;SDS011;5642;50.830;12.082;2023-11-19T04:23:21;0.45;;;0.40;;
11171;SDS011;5642;50.830;12.082;2023-11-19T04:25:48;0.38;;;0.35;;
11171;SDS011;5642;50.830;12.082;2023-11-19T04:28:20;0.30;;;0.30;;
11171;SDS011;5642;50.830;12.082;2023-11-19T04:30:47;0.30;;;0.30;;
11171;SDS011;5642;50.830;12.082;2023-11-19T04:33:13;0.30;;;0.30;;
11171;SDS011;5642;50.830;12.082;2023-11-19T04:35:41;0.30;;;0.30;;
11171;SDS011;5642;50.830;12.082;2023-11-19T04:38:07;0.20;;;0.20;;
11171;SDS011;5642;50.830;12.082;2023-11-19T04:40:35;0.30;;;0.30;;
11171;SDS011;5642;50.830;12.082;2023-11-19T04:43:19;0.43;;;0.43;;
11171;SDS011;5642;50.830;12.082;2023-11-19T04:45:46;0.50;;;0.50;;
11171;SDS011;5642;50.830;12.082;2023-11-19T04:48:15;0.40;;;0.40;;
11171;SDS011;5642;50.830;12.082;2023-11-19T04:50:41;0.40;;;0.40;;
11171;SDS011;5642;50.830;12.082;2023-11-19T04:53:07;0.60;;;0.60;;
11171;SDS011;5642;50.830;12.082;2023-11-19T04:55:33;0.40;;;0.40;;
11171;SDS011;5642;50.830;12.082;2023-11-19T04:57:59;0.38;;;0.38;;
11171;SDS011;5642;50.830;12.082;2023-11-19T05:00:25;0.40;;;0.40;;
11171;SDS011;5642;50.830;12.082;2023-11-19T05:03:00;0.73;;;0.60;;
11171;SDS011;5642;50.830;12.082;2023-11-19T05:05:29;0.52;;;0.52;;
11171;SDS011;5642;50.830;12.082;2023-11-19T05:07:55;0.50;;;0.50;;
11171;SDS011;5642;50.830;12.082;2023-11-19T05:10:23;0.40;;;0.40;;
11171;SDS011;5642;50.830;12.082;2023-11-19T05:12:51;0.40;;;0.40;;
11171;SDS011;5642;50.830;12.082;2023-11-19T05:15:18;0.30;;;0.30;;
11171;SDS011;5642;50.830;12.082;2023-11-19T05:17:44;0.30;;;0.30;;
11171;SDS011;5642;50.830;12.082;2023-11-19T05:20:12;0.63;;;0.63;;
11171;SDS011;5642;50.830;12.082;2023-11-19T05:22:41;0.40;;;0.40;;
11171;SDS011;5642;50.830;12.082;2023-11-19T05:25:08;0.50;;;0.50;;
11171;SDS011;5642;50.830;12.082;2023-11-19T05:27:37;0.30;;;0.30;;
11171;SDS011;5642;50.830;12.082;2023-11-19T05:30:04;0.40;;;0.40;;
11171;SDS011;5642;50.830;12.082;2023-11-19T05:32:34;0.28;;;0.28;;
11171;SDS011;5642;50.830;12.082;2023-11-19T05:35:04;0.47;;;0.47;;
11171;SDS011;5642;50.830;12.082;2023-11-19T05:37:30;0.28;;;0.28;;
11171;SDS011;5642;50.830;12.082;2023-11-19T05:39:57;0.38;;;0.38;;
11171;SDS011;5642;50.830;12.082;2023-11-19T05:42:25;0.30;;;0.30;;
11171;SDS011;5642;50.830;12.082;2023-11-19T05:44:53;0.22;;;0.22;;
11171;SDS011;5642;50.830;12.082;2023-11-19T05:47:19;0.20;;;0.20;;
11171;SDS011;5642;50.830;12.082;2023-11-19T05:49:46;0.38;;;0.38;;
11171;SDS011;5642;50.830;12.082;2023-11-19T05:52:13;0.28;;;0.28;;
11171;SDS011;5642;50.830;12.082;2023-11-19T05:54:41;0.30;;;0.30;;
11171;SDS011;5642;50.830;12.082;2023-11-19T05:57:07;0.52;;;0.52;;
11171;SDS011;5642;50.830;12.082;2023-11-19T05:59:36;0.35;;;0.35;;
11171;SDS011;5642;50.830;12.082;2023-11-19T06:02:03;0.30;;;0.30;;
11171;SDS011;5642;50.830;12.082;2023-11-19T06:04:30;0.38;;;0.38;;
11171;SDS011;5642;50.830;12.082;2023-11-19T06:06:57;0.70;;;0.70;;
11171;SDS011;5642;50.830;12.082;2023-11-19T06:09:24;0.50;;;0.50;;
11171;SDS011;5642;50.830;12.082;2023-11-19T06:11:51;0.30;;;0.30;;
11171;SDS011;5642;50.830;12.082;2023-11-19T06:14:18;0.73;;;0.43;;
11171;SDS011;5642;50.830;12.082;2023-11-19T06:16:46;0.30;;;0.30;;
11171;SDS011;5642;50.830;12.082;2023-11-19T06:19:15;0.32;;;0.32;;
11171;SDS011;5642;50.830;12.082;2023-11-19T06:21:43;0.43;;;0.43;;
11171;SDS011;5642;50.830;12.082;2023-11-19T06:24:10;0.50;;;0.50;;
11171;SDS011;5642;50.830;12.082;2023-11-19T06:26:36;0.40;;;0.40;;
11171;SDS011;5642;50.830;12.082;2023-11-19T06:29:02;0.32;;;0.32;;
11171;SDS011;5642;50.830;12.082;2023-11-19T06:31:29;0.50;;;0.50;;
11171;SDS011;5642;50.830;12.082;2023-11-19T06:33:57;0.60;;;0.55;;
11171;SDS011;5642;50.830;12.082;2023-11-19T06:36:24;0.52;;;0.52;;
11171;SDS011;5642;50.830;12.082;2023-11-19T06:38:51;0.55;;;0.55;;
11171;SDS011;5642;50.830;12.082;2023-11-19T06:41:17;0.50;;;0.50;;
11171;SDS011;5642;50.830;12.082;2023-11-19T06:43:44;0.60;;;0.60;;
11171;SDS011;5642;50.830;12.082;2023-11-19T06:46:17;0.55;;;0.55;;
11171;SDS011;5642;50.830;12.082;2023-11-19T06:48:44;0.43;;;0.43;;
11171;SDS011;5642;50.830;12.082;2023-11-19T06:51:11;0.55;;;0.52;;
11171;SDS011;5642;50.830;12.082;2023-11-19T06:53:39;0.40;;;0.40;;
11171;SDS011;5642;50.830;12.082;2023-11-19T06:56:17;0.50;;;0.50;;
11171;SDS011;5642;50.830;12.082;2023-11-19T06:58:44;0.85;;;0.70;;
11171;SDS011;5642;50.830;12.082;2023-11-19T07:01:10;0.80;;;0.80;;
11171;SDS011;5642;50.830;12.082;2023-11-19T07:03:36;0.60;;;0.60;;
11171;SDS011;5642;50.830;12.082;2023-11-19T07:06:05;0.55;;;0.55;;
11171;SDS011;5642;50.830;12.082;2023-11-19T07:08:31;0.50;;;0.50;;
11171;SDS011;5642;50.830;12.082;2023-11-19T07:10:58;0.73;;;0.73;;
11171;SDS011;5642;50.830;12.082;2023-11-19T07:13:30;0.50;;;0.50;;
11171;SDS011;5642;50.830;12.082;2023-11-19T07:15:57;0.50;;;0.50;;
11171;SDS011;5642;50.830;12.082;2023-11-19T07:18:24;0.40;;;0.40;;
11171;SDS011;5642;50.830;12.082;2023-11-19T07:20:50;0.65;;;0.30;;
11171;SDS011;5642;50.830;12.082;2023-11-19T07:23:17;0.50;;;0.50;;
11171;SDS011;5642;50.830;12.082;2023-11-19T07:25:54;0.68;;;0.68;;
11171;SDS011;5642;50.830;12.082;2023-11-19T07:28:25;0.50;;;0.50;;
11171;SDS011;5642;50.830;12.082;2023-11-19T07:30:57;0.57;;;0.57;;
11171;SDS011;5642;50.830;12.082;2023-11-19T07:33:23;0.60;;;0.60;;
11171;SDS011;5642;50.830;12.082;2023-11-19T07:35:54;0.70;;;0.70;;
11171;SDS011;5642;50.830;12.082;2023-11-19T07:38:24;0.50;;;0.50;;
11171;SDS011;5642;50.830;12.082;2023-11-19T07:40:53;0.60;;;0.60;;
11171;SDS011;5642;50.830;12.082;2023-11-19T07:43:35;0.50;;;0.40;;
11171;SDS011;5642;50.830;12.082;2023-11-19T07:46:10;0.30;;;0.30;;
11171;SDS011;5642;50.830;12.082;2023-11-19T07:48:38;0.70;;;0.60;;
11171;SDS011;5642;50.830;12.082;2023-11-19T07:51:06;0.45;;;0.45;;
11171;SDS011;5642;50.830;12.082;2023-11-19T07:53:32;0.60;;;0.60;;
11171;SDS011;5642;50.830;12.082;2023-11-19T07:56:09;0.50;;;0.50;;
11171;SDS011;5642;50.830;12.082;2023-11-19T07:58:37;0.90;;;0.90;;
11171;SDS011;5642;50.830;12.082;2023-11-19T08:01:04;0.50;;;0.50;;
11171;SDS011;5642;50.830;12.082;2023-11-19T08:03:30;0.75;;;0.75;;
11171;SDS011;5642;50.830;12.082;2023-11-19T08:05:59;0.70;;;0.70;;
11171;SDS011;5642;50.830;12.082;2023-11-19T08:08:25;1.10;;;0.60;;
11171;SDS011;5642;50.830;12.082;2023-11-19T08:10:52;0.70;;;0.70;;
11171;SDS011;5642;50.830;12.082;2023-11-19T08:13:19;2.15;;;1.48;;
11171;SDS011;5642;50.830;12.082;2023-11-19T08:15:49;0.80;;;0.80;;
11171;SDS011;5642;50.830;12.082;2023-11-19T08:18:17;1.00;;;0.90;;
11171;SDS011;5642;50.830;12.082;2023-11-19T08:20:45;0.93;;;0.93;;
11171;SDS011;5642;50.830;12.082;2023-11-19T08:23:12;1.20;;;0.80;;
11171;SDS011;5642;50.830;12.082;2023-11-19T08:25:38;0.63;;;0.63;;
11171;SDS011;5642;50.830;12.082;2023-11-19T08:28:05;0.93;;;0.73;;
11171;SDS011;5642;50.830;12.082;2023-11-19T08:30:32;0.63;;;0.63;;
11171;SDS011;5642;50.830;12.082;2023-11-19T08:32:58;0.43;;;0.43;;
11171;SDS011;5642;50.830;12.082;2023-11-19T08:35:28;0.70;;;0.70;;
11171;SDS011;5642;50.830;12.082;2023-11-19T08:37:55;1.00;;;0.90;;
11171;SDS011;5642;50.830;12.082;2023-11-19T08:40:23;0.85;;;0.60;;
11171;SDS011;5642;50.830;12.082;2023-11-19T08:42:49;0.80;;;0.80;;
11171;SDS011;5642;50.830;12.082;2023-11-19T08:45:17;0.80;;;0.80;;
11171;SDS011;5642;50.830;12.082;2023-11-19T08:47:44;0.60;;;0.60;;
11171;SDS011;5642;50.830;12.082;2023-11-19T08:50:14;0.57;;;0.57;;
11171;SDS011;5642;50.830;12.082;2023-11-19T08:52:41;1.15;;;0.70;;
11171;SDS011;5642;50.830;12.082;2023-11-19T08:55:07;0.63;;;0.63;;
11171;SDS011;5642;50.830;12.082;2023-11-19T08:57:35;0.70;;;0.70;;
11171;SDS011;5642;50.830;12.082;2023-11-19T09:00:02;0.60;;;0.60;;
11171;SDS011;5642;50.830;12.082;2023-11-19T09:02:33;0.35;;;0.35;;
11171;SDS011;5642;50.830;12.082;2023-11-19T09:05:00;0.70;;;0.70;;
11171;SDS011;5642;50.830;12.082;2023-11-19T09:07:29;0.70;;;0.60;;
11171;SDS011;5642;50.830;12.082;2023-11-19T09:09:55;1.05;;;0.70;;
11171;SDS011;5642;50.830;12.082;2023-11-19T09:12:22;0.50;;;0.50;;
11171;SDS011;5642;50.830;12.082;2023-11-19T09:14:48;1.20;;;0.70;;
11171;SDS011;5642;50.830;12.082;2023-11-19T09:17:15;0.80;;;0.80;;
11171;SDS011;5642;50.830;12.082;2023-11-19T09:19:42;1.88;;;1.33;;
11171;SDS011;5642;50.830;12.082;2023-11-19T09:22:09;1.38;;;1.27;;
11171;SDS011;5642;50.830;12.082;2023-11-19T09:24:35;1.20;;;1.10;;
11171;SDS011;5642;50.830;12.082;2023-11-19T09:27:02;0.82;;;0.82;;
11171;SDS011;5642;50.830;12.082;2023-11-19T09:29:33;1.00;;;0.90;;
11171;SDS011;5642;50.830;12.082;2023-11-19T09:32:00;0.57;;;0.50;;
11171;SDS011;5642;50.830;12.082;2023-11-19T09:34:27;0.52;;;0.47;;
11171;SDS011;5642;50.830;12.082;2023-11-19T09:36:53;0.50;;;0.50;;
11171;SDS011;5642;50.830;12.082;2023-11-19T09:39:20;0.60;;;0.60;;
11171;SDS011;5642;50.830;12.082;2023-11-19T09:41:47;0.63;;;0.50;;
11171;SDS011;5642;50.830;12.082;2023-11-19T09:44:15;1.35;;;0.50;;
11171;SDS011;5642;50.830;12.082;2023-11-19T09:46:45;0.47;;;0.47;;
11171;SDS011;5642;50.830;12.082;2023-11-19T09:49:12;0.45;;;0.45;;
11171;SDS011;5642;50.830;12.082;2023-11-19T09:51:42;0.30;;;0.30;;
11171;SDS011;5642;50.830;12.082;2023-11-19T09:54:10;0.50;;;0.38;;
11171;SDS011;5642;50.830;12.082;2023-11-19T09:56:38;0.32;;;0.32;;
11171;SDS011;5642;50.830;12.082;2023-11-19T09:59:08;0.40;;;0.40;;
11171;SDS011;5642;50.830;12.082;2023-11-19T10:01:36;0.65;;;0.50;;
11171;SDS011;5642;50.830;12.082;2023-11-19T10:04:06;0.60;;;0.60;;
11171;SDS011;5642;50.830;12.082;2023-11-19T10:06:34;0.50;;;0.50;;
11171;SDS011;5642;50.830;12.082;2023-11-19T10:09:02;1.45;;;0.55;;
11171;SDS011;5642;50.830;12.082;2023-11-19T10:11:33;0.40;;;0.40;;
11171;SDS011;5642;50.830;12.082;2023-11-19T10:14:01;1.75;;;0.60;;
11171;SDS011;5642;50.830;12.082;2023-11-19T10:16:29;2.00;;;1.23;;
11171;SDS011;5642;50.830;12.082;2023-11-19T10:19:01;1.10;;;0.95;;
11171;SDS011;5642;50.830;12.082;2023-11-19T10:21:29;1.20;;;1.10;;
11171;SDS011;5642;50.830;12.082;2023-11-19T10:24:03;1.95;;;1.05;;
11171;SDS011;5642;50.830;12.082;2023-11-19T10:26:33;1.70;;;1.10;;
11171;SDS011;5642;50.830;12.082;2023-11-19T10:29:13;1.30;;;1.13;;
11171;SDS011;5642;50.830;12.082;2023-11-19T10:31:40;0.90;;;0.88;;
11171;SDS011;5642;50.830;12.082;2023-11-19T10:34:11;0.80;;;0.68;;
11171;SDS011;5642;50.830;12.082;2023-11-19T10:36:54;1.30;;;0.80;;
11171;SDS011;5642;50.830;12.082;2023-11-19T10:39:23;0.70;;;0.70;;
11171;SDS011;5642;50.830;12.082;2023-11-19T10:41:51;0.85;;;0.68;;
11171;SDS011;5642;50.830;12.082;2023-11-19T10:44:31;0.70;;;0.70;;
11171;SDS011;5642;50.830;12.082;2023-11-19T10:47:02;1.67;;;0.63;;
11171;SDS011;5642;50.830;12.082;2023-11-19T10:49:34;1.15;;;0.73;;
11171;SDS011;5642;50.830;12.082;2023-11-19T10:52:01;0.73;;;0.60;;
11171;SDS011;5642;50.830;12.082;2023-11-19T10:54:32;1.48;;;0.70;;
11171;SDS011;5642;50.830;12.082;2023-11-19T10:57:01;1.73;;;0.93;;
11171;SDS011;5642;50.830;12.082;2023-11-19T10:59:33;1.00;;;0.80;;
11171;SDS011;5642;50.830;12.082;2023-11-19T11:02:10;3.25;;;1.40;;
11171;SDS011;5642;50.830;12.082;2023-11-19T11:04:45;1.42;;;0.68;;
11171;SDS011;5642;50.830;12.082;2023-11-19T11:07:41;2.22;;;1.33;;
11171;SDS011;5642;50.830;12.082;2023-11-19T11:10:14;5.07;;;2.83;;
11171;SDS011;5642;50.830;12.082;2023-11-19T11:12:45;2.83;;;1.27;;
11171;SDS011;5642;50.830;12.082;2023-11-19T11:15:16;2.80;;;1.33;;
11171;SDS011;5642;50.830;12.082;2023-11-19T11:18:04;5.13;;;2.50;;
11171;SDS011;5642;50.830;12.082;2023-11-19T11:20:33;4.18;;;1.45;;
11171;SDS011;5642;50.830;12.082;2023-11-19T11:23:33;2.25;;;1.40;;
11171;SDS011;5642;50.830;12.082;2023-11-19T11:37:34;1.75;;;1.00;;
11171;SDS011;5642;50.830;12.082;2023-11-19T11:40:09;2.88;;;1.50;;
11171;SDS011;5642;50.830;12.082;2023-11-19T11:42:42;10.27;;;4.65;;
11171;SDS011;5642;50.830;12.082;2023-11-19T11:50:16;3.13;;;1.00;;
11171;SDS011;5642;50.830;12.082;2023-11-19T11:55:27;1.08;;;0.80;;
11171;SDS011;5642;50.830;12.082;2023-11-19T11:58:02;1.27;;;0.80;;
11171;SDS011;5642;50.830;12.082;2023-11-19T12:00:32;0.93;;;0.70;;
11171;SDS011;5642;50.830;12.082;2023-11-19T12:03:28;1.27;;;0.73;;
11171;SDS011;5642;50.830;12.082;2023-11-19T12:05:56;1.20;;;0.80;;
11171;SDS011;5642;50.830;12.082;2023-11-19T12:08:27;2.22;;;0.90;;
11171;SDS011;5642;50.830;12.082;2023-11-19T12:10:55;1.58;;;0.95;;
11171;SDS011;5642;50.830;12.082;2023-11-19T12:13:44;2.72;;;0.90;;
11171;SDS011;5642;50.830;12.082;2023-11-19T12:16:25;2.33;;;0.98;;
11171;SDS011;5642;50.830;12.082;2023-11-19T12:19:12;1.67;;;0.85;;
11171;SDS011;5642;50.830;12.082;2023-11-19T12:21:49;1.00;;;0.90;;
11171;SDS011;5642;50.830;12.082;2023-11-19T12:24:17;1.40;;;0.68;;
11171;SDS011;5642;50.830;12.082;2023-11-19T12:26:46;2.63;;;0.88;;
11171;SDS011;5642;50.830;12.082;2023-11-19T12:29:15;1.50;;;0.85;;
11171;SDS011;5642;50.830;12.082;2023-11-19T12:31:44;1.30;;;0.73;;
11171;SDS011;5642;50.830;12.082;2023-11-19T12:34:22;1.88;;;0.77;;
11171;SDS011;5642;50.830;12.082;2023-11-19T12:36:49;3.40;;;0.88;;
11171;SDS011;5642;50.830;12.082;2023-11-19T12:39:16;1.25;;;0.80;;
11171;SDS011;5642;50.830;12.082;2023-11-19T12:41:49;2.22;;;0.98;;
11171;SDS011;5642;50.830;12.082;2023-11-19T12:44:20;3.75;;;1.17;;
11171;SDS011;5642;50.830;12.082;2023-11-19T12:46:58;0.77;;;0.68;;
11171;SDS011;5642;50.830;12.082;2023-11-19T12:49:37;1.00;;;0.65;;
11171;SDS011;5642;50.830;12.082;2023-11-19T12:52:17;2.25;;;1.05;;
11171;SDS011;5642;50.830;12.082;2023-11-19T12:54:46;2.22;;;0.95;;
11171;SDS011;5642;50.830;12.082;2023-11-19T12:57:16;1.58;;;0.55;;
11171;SDS011;5642;50.830;12.082;2023-11-19T12:59:56;1.13;;;0.85;;
11171;SDS011;5642;50.830;12.082;2023-11-19T13:02:46;0.40;;;0.40;;
11171;SDS011;5642;50.830;12.082;2023-11-19T13:08:01;1.70;;;0.65;;
11171;SDS011;5642;50.830;12.082;2023-11-19T13:10:32;2.00;;;0.73;;
11171;SDS011;5642;50.830;12.082;2023-11-19T13:13:08;3.40;;;1.00;;
11171;SDS011;5642;50.830;12.082;2023-11-19T13:15:49;1.50;;;0.90;;
11171;SDS011;5642;50.830;12.082;2023-11-19T13:18:21;2.05;;;0.80;;
11171;SDS011;5642;50.830;12.082;2023-11-19T13:20:47;0.82;;;0.70;;
11171;SDS011;5642;50.830;12.082;2023-11-19T13:23:16;1.85;;;0.73;;
11171;SDS011;5642;50.830;12.082;2023-11-19T13:25:58;1.23;;;0.70;;
11171;SDS011;5642;50.830;12.082;2023-11-19T13:28:26;2.38;;;0.80;;
11171;SDS011;5642;50.830;12.082;2023-11-19T13:30:53;0.80;;;0.70;;
11171;SDS011;5642;50.830;12.082;2023-11-19T13:33:27;1.38;;;0.80;;
11171;SDS011;5642;50.830;12.082;2023-11-19T13:35:57;0.63;;;0.60;;
11171;SDS011;5642;50.830;12.082;2023-11-19T13:38:23;2.05;;;0.80;;
11171;SDS011;5642;50.830;12.082;2023-11-19T13:40:52;1.48;;;0.90;;
11171;SDS011;5642;50.830;12.082;2023-11-19T13:43:19;2.85;;;1.00;;
11171;SDS011;5642;50.830;12.082;2023-11-19T13:45:45;1.75;;;1.10;;
11171;SDS011;5642;50.830;12.082;2023-11-19T13:48:12;1.90;;;1.00;;
11171;SDS011;5642;50.830;12.082;2023-11-19T13:50:40;2.67;;;1.00;;
11171;SDS011;5642;50.830;12.082;2023-11-19T13:53:09;2.17;;;1.00;;
11171;SDS011;5642;50.830;12.082;2023-11-19T13:55:40;1.23;;;0.88;;
11171;SDS011;5642;50.830;12.082;2023-11-19T13:58:08;0.73;;;0.60;;
11171;SDS011;5642;50.830;12.082;2023-11-19T14:00:39;1.27;;;0.80;;
11171;SDS011;5642;50.830;12.082;2023-11-19T14:03:31;1.63;;;0.70;;
11171;SDS011;5642;50.830;12.082;2023-11-19T14:05:59;1.75;;;0.90;;
11171;SDS011;5642;50.830;12.082;2023-11-19T14:08:48;1.08;;;0.70;;
11171;SDS011;5642;50.830;12.082;2023-11-19T14:11:15;1.35;;;0.85;;
11171;SDS011;5642;50.830;12.082;2023-11-19T14:13:45;2.13;;;0.98;;
11171;SDS011;5642;50.830;12.082;2023-11-19T14:16:12;1.60;;;0.90;;
11171;SDS011;5642;50.830;12.082;2023-11-19T14:21:21;1.02;;;0.93;;
11171;SDS011;5642;50.830;12.082;2023-11-19T14:24:21;0.75;;;0.70;;
11171;SDS011;5642;50.830;12.082;2023-11-19T14:26:51;2.22;;;0.80;;
11171;SDS011;5642;50.830;12.082;2023-11-19T14:29:18;1.15;;;0.80;;
11171;SDS011;5642;50.830;12.082;2023-11-19T14:31:44;1.27;;;0.85;;
11171;SDS011;5642;50.830;12.082;2023-11-19T14:34:10;1.90;;;0.80;;
11171;SDS011;5642;50.830;12.082;2023-11-19T14:36:39;1.00;;;0.70;;
11171;SDS011;5642;50.830;12.082;2023-11-19T14:39:06;1.30;;;0.60;;
11171;SDS011;5642;50.830;12.082;2023-11-19T14:41:33;0.80;;;0.73;;
11171;SDS011;5642;50.830;12.082;2023-11-19T14:43:59;1.33;;;0.70;;
11171;SDS011;5642;50.830;12.082;2023-11-19T14:46:25;1.27;;;0.70;;
11171;SDS011;5642;50.830;12.082;2023-11-19T14:48:51;2.95;;;0.80;;
11171;SDS011;5642;50.830;12.082;2023-11-19T14:51:17;2.30;;;1.17;;
11171;SDS011;5642;50.830;12.082;2023-11-19T14:53:43;3.33;;;0.93;;
11171;SDS011;5642;50.830;12.082;2023-11-19T14:56:11;1.52;;;0.63;;
11171;SDS011;5642;50.830;12.082;2023-11-19T14:58:42;1.88;;;0.70;;
11171;SDS011;5642;50.830;12.082;2023-11-19T15:01:16;1.98;;;0.80;;
11171;SDS011;5642;50.830;12.082;2023-11-19T15:03:44;1.15;;;0.70;;
11171;SDS011;5642;50.830;12.082;2023-11-19T15:06:10;1.33;;;0.80;;
11171;SDS011;5642;50.830;12.082;2023-11-19T15:08:39;1.77;;;0.90;;
11171;SDS011;5642;50.830;12.082;2023-11-19T15:11:08;1.38;;;0.82;;
11171;SDS011;5642;50.830;12.082;2023-11-19T15:13:36;1.98;;;0.80;;
11171;SDS011;5642;50.830;12.082;2023-11-19T15:16:04;0.85;;;0.65;;
11171;SDS011;5642;50.830;12.082;2023-11-19T15:18:32;2.78;;;0.63;;
11171;SDS011;5642;50.830;12.082;2023-11-19T15:20:59;1.67;;;0.80;;
11171;SDS011;5642;50.830;12.082;2023-11-19T15:23:26;2.28;;;0.88;;
11171;SDS011;5642;50.830;12.082;2023-11-19T15:25:54;2.33;;;0.80;;